Buoy 41580

sailwx.info

Track history (hours):
 
Tides and Currents Weather Stations Pressure Air Temp Water Temp Dewpoint Dewpoint Depression Visibility Wind Speed Wind Dir Waves Ship Positions

Drifting buoy 41580

Last reported at 2015-Jan-28 09:00 UTC. Time now 2015-Jan-28 12:08 UTC.
Position N 17°17' W 043°19'.

Barometer 1018.5 mb
Water temperature 24.7 ° C

Date/timePositionNaut miles runAvg speedWind from/ knotsBaromVisibWave heightAir tempDewpointWater temp
2015-Jan-28 09:00N 17°17' W 043°19'3 0.8 1018.5 24.7
2015-Jan-28 05:00N 17°17' W 043°16'0 0.4 1019.2 24.8
2015-Jan-28 04:00N 17°17' W 043°16'1 0.1 1019.4 24.8
2015-Jan-28 00:00N 17°18' W 043°16'1 0.9 1020.0 24.8
2015-Jan-27 23:00N 17°18' W 043°17'0 0.2 1019.7 24.8
2015-Jan-27 21:00N 17°17' W 043°17'1 0.8 1018.8 24.9
2015-Jan-27 20:00N 17°18' W 043°16'0 0.1 1018.3 24.8
2015-Jan-27 18:00N 17°18' W 043°17'1 0.8 1018.0 24.9
2015-Jan-27 17:00N 17°18' W 043°16'0 0.0 1018.4 24.9
2015-Jan-27 16:00N 17°18' W 043°16'2 0.6 1018.9 24.9
2015-Jan-27 12:00N 17°18' W 043°13'1 1.3 1020.0 24.8
2015-Jan-27 11:00N 17°16' W 043°14'0 0.0 1019.5 24.8
2015-Jan-27 09:00N 17°16' W 043°14'0 0.2 1018.7 24.8
2015-Jan-27 07:00N 17°16' W 043°14'0 0.1 1018.2 24.8
2015-Jan-27 05:00N 17°16' W 043°14'1 0.8 1018.8 24.8
2015-Jan-27 04:00N 17°16' W 043°14'2 0.5 1019.3 24.8
2015-Jan-27 00:00N 17°18' W 043°12'1 0.5 1019.4 24.9
2015-Jan-26 23:00N 17°17' W 043°13'1 0.9 1019.1 24.9
2015-Jan-26 22:00N 17°17' W 043°12'2 1.7 1018.3 24.9
2015-Jan-26 21:00N 17°16' W 043°13'0 0.1 1017.7 24.9
2015-Jan-26 20:00N 17°16' W 043°13'1 0.3 1017.3 25.0
2015-Jan-26 18:00N 17°16' W 043°14'0 0.0 1016.7 25.0
2015-Jan-26 17:00N 17°16' W 043°14'1 0.4 1017.0 25.0
2015-Jan-26 15:00N 17°16' W 043°14'0 0.0 1018.1 24.9
2015-Jan-26 14:00N 17°16' W 043°14'0 0.5 1018.5 24.8
2015-Jan-26 13:00N 17°16' W 043°14'1 1.5 1018.8 24.8
2015-Jan-26 12:00N 17°17' W 043°15'1 0.3 1018.8 24.8
2015-Jan-26 08:00N 17°16' W 043°14'0 0.2 1017.2 24.8
2015-Jan-26 06:00N 17°17' W 043°14'0 0.2 1017.1 24.8
2015-Jan-26 04:00N 17°16' W 043°14'0 0.0 1017.6 24.8
2015-Jan-26 03:00N 17°16' W 043°14'1 0.4 1017.6 24.8
2015-Jan-26 01:00N 17°17' W 043°13'0 0.1 1018.1 24.8
2015-Jan-25 19:00N 17°17' W 043°13'0 0.0 1015.9 25.0
2015-Jan-25 17:00N 17°17' W 043°13'1 0.3 1015.9 25.0
2015-Jan-25 12:00N 17°18' W 043°13'1 0.8 1019.0 24.8
2015-Jan-25 11:00N 17°17' W 043°13'0 0.0 1018.5 24.8
2015-Jan-25 10:00N 17°17' W 043°13'0 0.1 1017.7 24.8
2015-Jan-25 07:00N 17°17' W 043°13'0 0.2 1017.3 24.8
2015-Jan-25 06:00N 17°17' W 043°13'1 0.5 1017.4 24.8
2015-Jan-25 04:00N 17°17' W 043°14'0 0.0 1018.5 24.8
2015-Jan-25 03:00N 17°17' W 043°14'3 0.4 1018.6 24.8
2015-Jan-24 20:00N 17°18' W 043°12'1 0.3 1017.5 25.0
2015-Jan-24 17:00N 17°17' W 043°12'0 0.0 1017.5 25.0
2015-Jan-24 16:00N 17°17' W 043°12'1 0.4 1017.8 24.9
2015-Jan-24 13:00N 17°18' W 043°12'1 0.7 1018.9 24.8
2015-Jan-24 12:00N 17°18' W 043°12'1 0.4 1018.9 24.8
2015-Jan-24 09:00N 17°18' W 043°11'1 0.5 1017.6 24.7
2015-Jan-24 07:00N 17°17' W 043°12'0 0.1 1016.8 24.8
2015-Jan-24 06:00N 17°17' W 043°12'1 0.3 1017.3 24.8
2015-Jan-24 04:00N 17°17' W 043°12'1 0.1 1018.0 24.8
2015-Jan-24 00:00N 17°17' W 043°13'1 0.3 1018.3 24.8
2015-Jan-23 22:00N 17°17' W 043°13'0 0.2 1017.4 24.8
2015-Jan-23 20:00N 17°17' W 043°13'0 0.5 1016.5 24.9
2015-Jan-23 19:00N 17°18' W 043°13'1 0.4 1016.1 24.9
2015-Jan-23 17:00N 17°17' W 043°13'1 0.6 1016.5 24.9
2015-Jan-23 16:00N 17°17' W 043°13'1 0.3 1017.2 24.9
2015-Jan-23 13:00N 17°17' W 043°12'1 0.9 1018.6 24.8
2015-Jan-23 12:00N 17°18' W 043°13'0 0.0 1018.3 24.8
2015-Jan-23 11:00N 17°18' W 043°13'0 0.1 1017.7 24.8
2015-Jan-23 09:00N 17°17' W 043°13'0 0.1 1016.5 24.8
2015-Jan-23 08:00N 17°17' W 043°13'1 0.6 1016.3 24.8
2015-Jan-23 06:00N 17°18' W 043°11'0 0.0 1016.4 24.8
2015-Jan-23 04:00N 17°18' W 043°11'0 0.0 1017.6 24.8
2015-Jan-23 01:00N 17°18' W 043°11'1 0.6 1018.3 24.8
2015-Jan-23 00:00N 17°18' W 043°12'0 0.3 1018.4 24.8
2015-Jan-22 23:00N 17°18' W 043°12'2 0.3 1018.0 24.8
2015-Jan-22 18:00N 17°19' W 043°11'0 0.2 1016.0 24.9
2015-Jan-22 16:00N 17°19' W 043°11'1 0.1 1016.7 24.9
2015-Jan-22 12:00N 17°19' W 043°11'2 1.8 1017.9 24.8
2015-Jan-22 11:00N 17°18' W 043°09'2 0.5 1017.0 24.8
2015-Jan-22 06:00N 17°16' W 043°08'0 0.0 1015.9 24.8
2015-Jan-22 05:00N 17°16' W 043°08'0 0.0 1016.4 24.8
2015-Jan-22 00:00N 17°16' W 043°08'1 0.8 1017.7 24.8
2015-Jan-21 23:00N 17°16' W 043°08'0 0.0 1017.5 24.8
2015-Jan-21 21:00N 17°16' W 043°08'1 0.2 1016.5 24.8
2015-Jan-21 18:00N 17°15' W 043°08'1 0.6 1015.4 24.9
2015-Jan-21 16:00N 17°14' W 043°08'0 0.0 1015.8 24.9
2015-Jan-21 15:00N 17°14' W 043°08'2 0.8 1016.6 24.9
2015-Jan-21 12:00N 17°12' W 043°09'0 0.0 1017.3 24.8
2015-Jan-21 11:00N 17°12' W 043°09'1 0.2 1016.8 24.8
2015-Jan-21 07:00N 17°12' W 043°09'1 0.7 1015.1 24.8
2015-Jan-21 06:00N 17°13' W 043°09'0 0.0 1015.5 24.8
2015-Jan-21 05:00N 17°13' W 043°09'1 0.2 1016.0 24.8
2015-Jan-21 01:00N 17°13' W 043°08'0 0.0 1017.3 24.9
2015-Jan-21 00:00N 17°13' W 043°08'0 0.2 1017.3 24.9
2015-Jan-20 23:00N 17°13' W 043°08'1 1.1 1016.9 24.9
2015-Jan-20 22:00N 17°13' W 043°09'0 0.1 1016.6 24.9
2015-Jan-20 21:00N 17°13' W 043°09'0 0.4 1016.2 24.9
2015-Jan-20 20:00N 17°13' W 043°10'1 0.3 1016.0 24.9
2015-Jan-20 18:00N 17°13' W 043°10'0 0.4 1015.4 25.0
2015-Jan-20 17:00N 17°13' W 043°10'0 0.0 1015.8 24.9
2015-Jan-20 12:00N 17°13' W 043°10'1 1.2 1018.1 24.8
2015-Jan-20 11:00N 17°13' W 043°11'0 0.0 1017.3 24.8
2015-Jan-20 10:00N 17°13' W 043°11'1 0.3 1016.8 24.8
2015-Jan-20 08:00N 17°12' W 043°11'1 0.5 1016.3 24.8
2015-Jan-20 07:00N 17°12' W 043°11'0 0.0 1016.3 24.8
2015-Jan-20 06:00N 17°12' W 043°11'0 0.0 1016.8 24.8
2015-Jan-20 05:00N 17°12' W 043°11'1 0.6 1017.4 24.8
2015-Jan-20 03:00N 17°13' W 043°11'0 0.1 1018.1 24.9
2015-Jan-19 20:00N 17°14' W 043°10'1 0.6 1016.4 25.0
2015-Jan-19 19:00N 17°14' W 043°11'0 0.3 1016.1 25.0
2015-Jan-19 18:00N 17°14' W 043°11'0 0.3 1016.2 25.0
2015-Jan-19 17:00N 17°14' W 043°11'1 0.6 1016.5 25.0
2015-Jan-19 15:00N 17°15' W 043°11'0 0.0 1018.0 24.9
2015-Jan-19 13:00N 17°15' W 043°11'0 0.2 1018.8 24.8
2015-Jan-19 12:00N 17°15' W 043°11'1 0.5 1018.6 24.8
2015-Jan-19 09:00N 17°13' W 043°10'1 0.3 1017.0 24.8
2015-Jan-19 07:00N 17°13' W 043°11'1 0.4 1017.0 24.8
2015-Jan-19 05:00N 17°13' W 043°11'0 0.3 1017.9 24.8
2015-Jan-19 04:00N 17°14' W 043°12'1 0.2 1018.3 24.8
2015-Jan-19 00:00N 17°14' W 043°12'0 0.1 1019.5 24.9
2015-Jan-18 21:00N 17°14' W 043°11'1 1.0 1017.6 24.9
2015-Jan-18 20:00N 17°14' W 043°10'1 0.6 1017.2 24.9
2015-Jan-18 18:00N 17°13' W 043°10'0 0.0 1016.6 25.0
2015-Jan-18 17:00N 17°13' W 043°10'2 1.6 1016.9 25.0
2015-Jan-18 16:00N 17°12' W 043°09'0 0.0 1017.4 24.9
2015-Jan-18 15:00N 17°12' W 043°09'2 0.7 1018.1 24.9
2015-Jan-18 12:00N 17°13' W 043°11'0 0.0 1019.1 24.8
2015-Jan-18 11:00N 17°13' W 043°11'1 0.5 1018.4 24.8
2015-Jan-18 09:00N 17°14' W 043°11'   1017.1 24.8
Track history (hours):
 
Tides and Currents Weather Stations Pressure Air Temp Water Temp Dewpoint Dewpoint Depression Visibility Wind Speed Wind Dir Waves Ship Positions

Drifting buoy 41580

Last reported at 2015-Jan-28 09:00 UTC. Time now 2015-Jan-28 12:08 UTC.
Position N 17°17' W 043°19'.

Barometer 1018.5 mb
Water temperature 24.7 ° C

Date/timePositionNaut miles runAvg speedWind from/ knotsBaromVisibWave heightAir tempDewpointWater temp
2015-Jan-28 09:00N 17°17' W 043°19'3 0.8 1018.5 24.7
2015-Jan-28 05:00N 17°17' W 043°16'0 0.4 1019.2 24.8
2015-Jan-28 04:00N 17°17' W 043°16'1 0.1 1019.4 24.8
2015-Jan-28 00:00N 17°18' W 043°16'1 0.9 1020.0 24.8
2015-Jan-27 23:00N 17°18' W 043°17'0 0.2 1019.7 24.8
2015-Jan-27 21:00N 17°17' W 043°17'1 0.8 1018.8 24.9
2015-Jan-27 20:00N 17°18' W 043°16'0 0.1 1018.3 24.8
2015-Jan-27 18:00N 17°18' W 043°17'1 0.8 1018.0 24.9
2015-Jan-27 17:00N 17°18' W 043°16'0 0.0 1018.4 24.9
2015-Jan-27 16:00N 17°18' W 043°16'2 0.6 1018.9 24.9
2015-Jan-27 12:00N 17°18' W 043°13'1 1.3 1020.0 24.8
2015-Jan-27 11:00N 17°16' W 043°14'0 0.0 1019.5 24.8
2015-Jan-27 09:00N 17°16' W 043°14'0 0.2 1018.7 24.8
2015-Jan-27 07:00N 17°16' W 043°14'0 0.1 1018.2 24.8
2015-Jan-27 05:00N 17°16' W 043°14'1 0.8 1018.8 24.8
2015-Jan-27 04:00N 17°16' W 043°14'2 0.5 1019.3 24.8
2015-Jan-27 00:00N 17°18' W 043°12'1 0.5 1019.4 24.9
2015-Jan-26 23:00N 17°17' W 043°13'1 0.9 1019.1 24.9
2015-Jan-26 22:00N 17°17' W 043°12'2 1.7 1018.3 24.9
2015-Jan-26 21:00N 17°16' W 043°13'0 0.1 1017.7 24.9
2015-Jan-26 20:00N 17°16' W 043°13'1 0.3 1017.3 25.0
2015-Jan-26 18:00N 17°16' W 043°14'0 0.0 1016.7 25.0
2015-Jan-26 17:00N 17°16' W 043°14'1 0.4 1017.0 25.0
2015-Jan-26 15:00N 17°16' W 043°14'0 0.0 1018.1 24.9
2015-Jan-26 14:00N 17°16' W 043°14'0 0.5 1018.5 24.8
2015-Jan-26 13:00N 17°16' W 043°14'1 1.5 1018.8 24.8
2015-Jan-26 12:00N 17°17' W 043°15'1 0.3 1018.8 24.8
2015-Jan-26 08:00N 17°16' W 043°14'0 0.2 1017.2 24.8
2015-Jan-26 06:00N 17°17' W 043°14'0 0.2 1017.1 24.8
2015-Jan-26 04:00N 17°16' W 043°14'0 0.0 1017.6 24.8
2015-Jan-26 03:00N 17°16' W 043°14'1 0.4 1017.6 24.8
2015-Jan-26 01:00N 17°17' W 043°13'0 0.1 1018.1 24.8
2015-Jan-25 19:00N 17°17' W 043°13'0 0.0 1015.9 25.0
2015-Jan-25 17:00N 17°17' W 043°13'1 0.3 1015.9 25.0
2015-Jan-25 12:00N 17°18' W 043°13'1 0.8 1019.0 24.8
2015-Jan-25 11:00N 17°17' W 043°13'0 0.0 1018.5 24.8
2015-Jan-25 10:00N 17°17' W 043°13'0 0.1 1017.7 24.8
2015-Jan-25 07:00N 17°17' W 043°13'0 0.2 1017.3 24.8
2015-Jan-25 06:00N 17°17' W 043°13'1 0.5 1017.4 24.8
2015-Jan-25 04:00N 17°17' W 043°14'0 0.0 1018.5 24.8
2015-Jan-25 03:00N 17°17' W 043°14'3 0.4 1018.6 24.8
2015-Jan-24 20:00N 17°18' W 043°12'1 0.3 1017.5 25.0
2015-Jan-24 17:00N 17°17' W 043°12'0 0.0 1017.5 25.0
2015-Jan-24 16:00N 17°17' W 043°12'1 0.4 1017.8 24.9
2015-Jan-24 13:00N 17°18' W 043°12'1 0.7 1018.9 24.8
2015-Jan-24 12:00N 17°18' W 043°12'1 0.4 1018.9 24.8
2015-Jan-24 09:00N 17°18' W 043°11'1 0.5 1017.6 24.7
2015-Jan-24 07:00N 17°17' W 043°12'0 0.1 1016.8 24.8
2015-Jan-24 06:00N 17°17' W 043°12'1 0.3 1017.3 24.8
2015-Jan-24 04:00N 17°17' W 043°12'1 0.1 1018.0 24.8
2015-Jan-24 00:00N 17°17' W 043°13'1 0.3 1018.3 24.8
2015-Jan-23 22:00N 17°17' W 043°13'0 0.2 1017.4 24.8
2015-Jan-23 20:00N 17°17' W 043°13'0 0.5 1016.5 24.9
2015-Jan-23 19:00N 17°18' W 043°13'1 0.4 1016.1 24.9
2015-Jan-23 17:00N 17°17' W 043°13'1 0.6 1016.5 24.9
2015-Jan-23 16:00N 17°17' W 043°13'1 0.3 1017.2 24.9
2015-Jan-23 13:00N 17°17' W 043°12'1 0.9 1018.6 24.8
2015-Jan-23 12:00N 17°18' W 043°13'0 0.0 1018.3 24.8
2015-Jan-23 11:00N 17°18' W 043°13'0 0.1 1017.7 24.8
2015-Jan-23 09:00N 17°17' W 043°13'0 0.1 1016.5 24.8
2015-Jan-23 08:00N 17°17' W 043°13'1 0.6 1016.3 24.8
2015-Jan-23 06:00N 17°18' W 043°11'0 0.0 1016.4 24.8
2015-Jan-23 04:00N 17°18' W 043°11'0 0.0 1017.6 24.8
2015-Jan-23 01:00N 17°18' W 043°11'1 0.6 1018.3 24.8
2015-Jan-23 00:00N 17°18' W 043°12'0 0.3 1018.4 24.8
2015-Jan-22 23:00N 17°18' W 043°12'2 0.3 1018.0 24.8
2015-Jan-22 18:00N 17°19' W 043°11'0 0.2 1016.0 24.9
2015-Jan-22 16:00N 17°19' W 043°11'1 0.1 1016.7 24.9
2015-Jan-22 12:00N 17°19' W 043°11'2 1.8 1017.9 24.8
2015-Jan-22 11:00N 17°18' W 043°09'2 0.5 1017.0 24.8
2015-Jan-22 06:00N 17°16' W 043°08'0 0.0 1015.9 24.8
2015-Jan-22 05:00N 17°16' W 043°08'0 0.0 1016.4 24.8
2015-Jan-22 00:00N 17°16' W 043°08'1 0.8 1017.7 24.8
2015-Jan-21 23:00N 17°16' W 043°08'0 0.0 1017.5 24.8
2015-Jan-21 21:00N 17°16' W 043°08'1 0.2 1016.5 24.8
2015-Jan-21 18:00N 17°15' W 043°08'1 0.6 1015.4 24.9
2015-Jan-21 16:00N 17°14' W 043°08'0 0.0 1015.8 24.9
2015-Jan-21 15:00N 17°14' W 043°08'2 0.8 1016.6 24.9
2015-Jan-21 12:00N 17°12' W 043°09'0 0.0 1017.3 24.8
2015-Jan-21 11:00N 17°12' W 043°09'1 0.2 1016.8 24.8
2015-Jan-21 07:00N 17°12' W 043°09'1 0.7 1015.1 24.8
2015-Jan-21 06:00N 17°13' W 043°09'0 0.0 1015.5 24.8
2015-Jan-21 05:00N 17°13' W 043°09'1 0.2 1016.0 24.8
2015-Jan-21 01:00N 17°13' W 043°08'0 0.0 1017.3 24.9
2015-Jan-21 00:00N 17°13' W 043°08'0 0.2 1017.3 24.9
2015-Jan-20 23:00N 17°13' W 043°08'1 1.1 1016.9 24.9
2015-Jan-20 22:00N 17°13' W 043°09'0 0.1 1016.6 24.9
2015-Jan-20 21:00N 17°13' W 043°09'0 0.4 1016.2 24.9
2015-Jan-20 20:00N 17°13' W 043°10'1 0.3 1016.0 24.9
2015-Jan-20 18:00N 17°13' W 043°10'0 0.4 1015.4 25.0
2015-Jan-20 17:00N 17°13' W 043°10'0 0.0 1015.8 24.9
2015-Jan-20 12:00N 17°13' W 043°10'1 1.2 1018.1 24.8
2015-Jan-20 11:00N 17°13' W 043°11'0 0.0 1017.3 24.8
2015-Jan-20 10:00N 17°13' W 043°11'1 0.3 1016.8 24.8
2015-Jan-20 08:00N 17°12' W 043°11'1 0.5 1016.3 24.8
2015-Jan-20 07:00N 17°12' W 043°11'0 0.0 1016.3 24.8
2015-Jan-20 06:00N 17°12' W 043°11'0 0.0 1016.8 24.8
2015-Jan-20 05:00N 17°12' W 043°11'1 0.6 1017.4 24.8
2015-Jan-20 03:00N 17°13' W 043°11'0 0.1 1018.1 24.9
2015-Jan-19 20:00N 17°14' W 043°10'1 0.6 1016.4 25.0
2015-Jan-19 19:00N 17°14' W 043°11'0 0.3 1016.1 25.0
2015-Jan-19 18:00N 17°14' W 043°11'0 0.3 1016.2 25.0
2015-Jan-19 17:00N 17°14' W 043°11'1 0.6 1016.5 25.0
2015-Jan-19 15:00N 17°15' W 043°11'0 0.0 1018.0 24.9
2015-Jan-19 13:00N 17°15' W 043°11'0 0.2 1018.8 24.8
2015-Jan-19 12:00N 17°15' W 043°11'1 0.5 1018.6 24.8
2015-Jan-19 09:00N 17°13' W 043°10'1 0.3 1017.0 24.8
2015-Jan-19 07:00N 17°13' W 043°11'1 0.4 1017.0 24.8
2015-Jan-19 05:00N 17°13' W 043°11'0 0.3 1017.9 24.8
2015-Jan-19 04:00N 17°14' W 043°12'1 0.2 1018.3 24.8
2015-Jan-19 00:00N 17°14' W 043°12'0 0.1 1019.5 24.9
2015-Jan-18 21:00N 17°14' W 043°11'1 1.0 1017.6 24.9
2015-Jan-18 20:00N 17°14' W 043°10'1 0.6 1017.2 24.9
2015-Jan-18 18:00N 17°13' W 043°10'0 0.0 1016.6 25.0
2015-Jan-18 17:00N 17°13' W 043°10'2 1.6 1016.9 25.0
2015-Jan-18 16:00N 17°12' W 043°09'0 0.0 1017.4 24.9
2015-Jan-18 15:00N 17°12' W 043°09'2 0.7 1018.1 24.9
2015-Jan-18 12:00N 17°13' W 043°11'0 0.0 1019.1 24.8
2015-Jan-18 11:00N 17°13' W 043°11'1 0.5 1018.4 24.8
2015-Jan-18 09:00N 17°14' W 043°11'   1017.1 24.8

Dump ship's entire track history